sensor_id;sensor_type;location;lat;lon;timestamp;P1;durP1;ratioP1;P2;durP2;ratioP2
966;SDS011;56108;48.730;9.304;2023-05-10T00:00:13;2.10;;;1.90;;
966;SDS011;56108;48.730;9.304;2023-05-10T00:02:22;1.90;;;1.80;;
966;SDS011;56108;48.730;9.304;2023-05-10T00:04:31;2.22;;;1.90;;
966;SDS011;56108;48.730;9.304;2023-05-10T00:06:39;1.98;;;1.88;;
966;SDS011;56108;48.730;9.304;2023-05-10T00:08:50;1.88;;;1.77;;
966;SDS011;56108;48.730;9.304;2023-05-10T00:10:58;1.80;;;1.70;;
966;SDS011;56108;48.730;9.304;2023-05-10T00:13:06;1.80;;;1.70;;
966;SDS011;56108;48.730;9.304;2023-05-10T00:15:14;2.13;;;1.92;;
966;SDS011;56108;48.730;9.304;2023-05-10T00:17:22;1.65;;;1.55;;
966;SDS011;56108;48.730;9.304;2023-05-10T00:19:30;1.85;;;1.75;;
966;SDS011;56108;48.730;9.304;2023-05-10T00:21:37;1.90;;;1.80;;
966;SDS011;56108;48.730;9.304;2023-05-10T00:23:45;1.48;;;1.48;;
966;SDS011;56108;48.730;9.304;2023-05-10T00:25:56;1.70;;;1.60;;
966;SDS011;56108;48.730;9.304;2023-05-10T00:28:04;1.55;;;1.45;;
966;SDS011;56108;48.730;9.304;2023-05-10T00:30:14;1.60;;;1.50;;
966;SDS011;56108;48.730;9.304;2023-05-10T00:32:23;1.20;;;1.20;;
966;SDS011;56108;48.730;9.304;2023-05-10T00:34:33;1.10;;;1.10;;
966;SDS011;56108;48.730;9.304;2023-05-10T00:36:41;1.33;;;1.23;;
966;SDS011;56108;48.730;9.304;2023-05-10T00:38:49;1.80;;;1.70;;
966;SDS011;56108;48.730;9.304;2023-05-10T00:40:59;2.13;;;2.03;;
966;SDS011;56108;48.730;9.304;2023-05-10T00:43:10;2.15;;;2.00;;
966;SDS011;56108;48.730;9.304;2023-05-10T00:45:18;2.05;;;1.95;;
966;SDS011;56108;48.730;9.304;2023-05-10T00:47:27;1.60;;;1.60;;
966;SDS011;56108;48.730;9.304;2023-05-10T00:49:36;1.63;;;1.52;;
966;SDS011;56108;48.730;9.304;2023-05-10T00:51:44;1.20;;;1.20;;
966;SDS011;56108;48.730;9.304;2023-05-10T00:53:52;1.50;;;1.40;;
966;SDS011;56108;48.730;9.304;2023-05-10T00:56:03;1.48;;;1.48;;
966;SDS011;56108;48.730;9.304;2023-05-10T00:58:11;1.63;;;1.52;;
966;SDS011;56108;48.730;9.304;2023-05-10T01:00:19;1.02;;;1.02;;
966;SDS011;56108;48.730;9.304;2023-05-10T01:02:28;2.35;;;0.80;;
966;SDS011;56108;48.730;9.304;2023-05-10T01:04:36;1.20;;;1.00;;
966;SDS011;56108;48.730;9.304;2023-05-10T01:06:45;1.30;;;0.80;;
966;SDS011;56108;48.730;9.304;2023-05-10T01:15:00;0.98;;;0.98;;
966;SDS011;56108;48.730;9.304;2023-05-10T01:17:09;0.95;;;0.95;;
966;SDS011;56108;48.730;9.304;2023-05-10T01:19:19;0.90;;;0.90;;
966;SDS011;56108;48.730;9.304;2023-05-10T01:21:30;1.30;;;1.20;;
966;SDS011;56108;48.730;9.304;2023-05-10T01:32:23;1.58;;;0.90;;
966;SDS011;56108;48.730;9.304;2023-05-10T01:34:38;0.65;;;0.65;;
966;SDS011;56108;48.730;9.304;2023-05-10T01:36:54;0.70;;;0.70;;
966;SDS011;56108;48.730;9.304;2023-05-10T01:39:11;0.63;;;0.63;;
966;SDS011;56108;48.730;9.304;2023-05-10T01:41:28;0.65;;;0.60;;
966;SDS011;56108;48.730;9.304;2023-05-10T01:43:53;2.25;;;0.50;;
966;SDS011;56108;48.730;9.304;2023-05-10T01:46:05;0.40;;;0.40;;
966;SDS011;56108;48.730;9.304;2023-05-10T01:48:19;0.43;;;0.43;;
966;SDS011;56108;48.730;9.304;2023-05-10T01:50:30;0.50;;;0.50;;
966;SDS011;56108;48.730;9.304;2023-05-10T01:52:41;0.45;;;0.40;;
966;SDS011;56108;48.730;9.304;2023-05-10T01:54:53;0.57;;;0.57;;
966;SDS011;56108;48.730;9.304;2023-05-10T01:57:05;1.75;;;0.50;;
966;SDS011;56108;48.730;9.304;2023-05-10T01:59:15;0.40;;;0.40;;
966;SDS011;56108;48.730;9.304;2023-05-10T02:01:25;1.48;;;0.52;;
966;SDS011;56108;48.730;9.304;2023-05-10T02:03:37;0.65;;;0.65;;
966;SDS011;56108;48.730;9.304;2023-05-10T02:05:47;0.57;;;0.57;;
966;SDS011;56108;48.730;9.304;2023-05-10T02:07:58;1.10;;;0.55;;
966;SDS011;56108;48.730;9.304;2023-05-10T02:10:09;0.85;;;0.75;;
966;SDS011;56108;48.730;9.304;2023-05-10T02:12:19;0.55;;;0.55;;
966;SDS011;56108;48.730;9.304;2023-05-10T02:14:28;0.63;;;0.63;;
966;SDS011;56108;48.730;9.304;2023-05-10T02:16:38;0.52;;;0.52;;
966;SDS011;56108;48.730;9.304;2023-05-10T02:18:49;0.70;;;0.55;;
966;SDS011;56108;48.730;9.304;2023-05-10T02:21:01;0.40;;;0.40;;
966;SDS011;56108;48.730;9.304;2023-05-10T02:23:10;0.70;;;0.70;;
966;SDS011;56108;48.730;9.304;2023-05-10T02:25:19;0.55;;;0.55;;
966;SDS011;56108;48.730;9.304;2023-05-10T02:27:30;0.93;;;0.43;;
966;SDS011;56108;48.730;9.304;2023-05-10T02:29:39;0.68;;;0.68;;
966;SDS011;56108;48.730;9.304;2023-05-10T02:31:48;1.23;;;0.60;;
966;SDS011;56108;48.730;9.304;2023-05-10T02:34:01;0.40;;;0.40;;
966;SDS011;56108;48.730;9.304;2023-05-10T02:36:11;1.20;;;0.50;;
966;SDS011;56108;48.730;9.304;2023-05-10T02:38:21;0.52;;;0.50;;
966;SDS011;56108;48.730;9.304;2023-05-10T02:40:31;0.63;;;0.63;;
966;SDS011;56108;48.730;9.304;2023-05-10T02:42:41;0.50;;;0.50;;
966;SDS011;56108;48.730;9.304;2023-05-10T02:44:52;0.45;;;0.45;;
966;SDS011;56108;48.730;9.304;2023-05-10T02:47:04;2.25;;;0.60;;
966;SDS011;56108;48.730;9.304;2023-05-10T02:49:14;1.00;;;0.90;;
966;SDS011;56108;48.730;9.304;2023-05-10T02:51:23;1.02;;;0.60;;
966;SDS011;56108;48.730;9.304;2023-05-10T02:53:36;0.65;;;0.65;;
966;SDS011;56108;48.730;9.304;2023-05-10T02:55:50;0.55;;;0.55;;
966;SDS011;56108;48.730;9.304;2023-05-10T02:58:00;0.68;;;0.68;;
966;SDS011;56108;48.730;9.304;2023-05-10T03:00:10;0.50;;;0.50;;
966;SDS011;56108;48.730;9.304;2023-05-10T03:02:20;0.70;;;0.70;;
966;SDS011;56108;48.730;9.304;2023-05-10T03:04:31;0.63;;;0.63;;
966;SDS011;56108;48.730;9.304;2023-05-10T03:06:39;0.80;;;0.80;;
966;SDS011;56108;48.730;9.304;2023-05-10T03:08:47;8.23;;;1.58;;
966;SDS011;56108;48.730;9.304;2023-05-10T03:10:57;0.73;;;0.73;;
966;SDS011;56108;48.730;9.304;2023-05-10T03:13:20;0.90;;;0.90;;
966;SDS011;56108;48.730;9.304;2023-05-10T03:15:38;0.70;;;0.70;;
966;SDS011;56108;48.730;9.304;2023-05-10T03:17:55;0.60;;;0.60;;
966;SDS011;56108;48.730;9.304;2023-05-10T03:20:12;1.30;;;1.30;;
966;SDS011;56108;48.730;9.304;2023-05-10T03:22:27;1.13;;;1.13;;
966;SDS011;56108;48.730;9.304;2023-05-10T03:24:41;1.15;;;1.05;;
966;SDS011;56108;48.730;9.304;2023-05-10T03:26:50;0.85;;;0.85;;
966;SDS011;56108;48.730;9.304;2023-05-10T03:29:03;1.13;;;0.80;;
966;SDS011;56108;48.730;9.304;2023-05-10T03:31:13;2.58;;;1.00;;
966;SDS011;56108;48.730;9.304;2023-05-10T03:33:22;0.85;;;0.80;;
966;SDS011;56108;48.730;9.304;2023-05-10T03:35:34;0.93;;;0.93;;
966;SDS011;56108;48.730;9.304;2023-05-10T03:37:43;1.02;;;1.02;;
966;SDS011;56108;48.730;9.304;2023-05-10T03:39:52;1.67;;;1.60;;
966;SDS011;56108;48.730;9.304;2023-05-10T03:42:01;4.82;;;1.20;;
966;SDS011;56108;48.730;9.304;2023-05-10T03:44:12;1.00;;;1.00;;
966;SDS011;56108;48.730;9.304;2023-05-10T03:46:21;1.40;;;1.30;;
966;SDS011;56108;48.730;9.304;2023-05-10T03:48:29;1.00;;;1.00;;
966;SDS011;56108;48.730;9.304;2023-05-10T03:50:40;1.88;;;1.20;;
966;SDS011;56108;48.730;9.304;2023-05-10T03:52:48;1.35;;;1.25;;
966;SDS011;56108;48.730;9.304;2023-05-10T03:54:58;1.60;;;1.50;;
966;SDS011;56108;48.730;9.304;2023-05-10T03:57:07;1.17;;;1.17;;
966;SDS011;56108;48.730;9.304;2023-05-10T03:59:18;1.70;;;1.60;;
966;SDS011;56108;48.730;9.304;2023-05-10T04:01:28;1.27;;;1.27;;
966;SDS011;56108;48.730;9.304;2023-05-10T04:03:36;1.60;;;1.50;;
966;SDS011;56108;48.730;9.304;2023-05-10T04:05:47;1.30;;;1.30;;
966;SDS011;56108;48.730;9.304;2023-05-10T04:07:55;1.50;;;1.40;;
966;SDS011;56108;48.730;9.304;2023-05-10T04:10:04;1.95;;;1.55;;
966;SDS011;56108;48.730;9.304;2023-05-10T04:12:12;1.40;;;1.30;;
966;SDS011;56108;48.730;9.304;2023-05-10T04:14:20;1.50;;;1.40;;
966;SDS011;56108;48.730;9.304;2023-05-10T04:16:28;1.50;;;1.40;;
966;SDS011;56108;48.730;9.304;2023-05-10T04:18:36;2.00;;;1.90;;
966;SDS011;56108;48.730;9.304;2023-05-10T04:20:47;1.80;;;1.70;;
966;SDS011;56108;48.730;9.304;2023-05-10T04:22:55;1.60;;;1.50;;
966;SDS011;56108;48.730;9.304;2023-05-10T04:25:03;2.00;;;1.90;;
966;SDS011;56108;48.730;9.304;2023-05-10T04:27:12;1.80;;;1.70;;
966;SDS011;56108;48.730;9.304;2023-05-10T04:29:20;3.15;;;1.60;;
966;SDS011;56108;48.730;9.304;2023-05-10T04:31:28;1.65;;;1.58;;
966;SDS011;56108;48.730;9.304;2023-05-10T04:33:37;2.13;;;2.03;;
966;SDS011;56108;48.730;9.304;2023-05-10T04:35:48;1.75;;;1.65;;
966;SDS011;56108;48.730;9.304;2023-05-10T04:37:56;2.50;;;2.30;;
966;SDS011;56108;48.730;9.304;2023-05-10T04:40:08;2.25;;;2.10;;
966;SDS011;56108;48.730;9.304;2023-05-10T04:42:17;2.13;;;1.92;;
966;SDS011;56108;48.730;9.304;2023-05-10T04:44:25;2.30;;;2.20;;
966;SDS011;56108;48.730;9.304;2023-05-10T04:46:33;2.00;;;1.90;;
966;SDS011;56108;48.730;9.304;2023-05-10T04:48:41;1.30;;;1.30;;
966;SDS011;56108;48.730;9.304;2023-05-10T04:50:52;1.60;;;1.50;;
966;SDS011;56108;48.730;9.304;2023-05-10T04:53:00;2.00;;;1.90;;
966;SDS011;56108;48.730;9.304;2023-05-10T04:55:08;1.20;;;1.20;;
966;SDS011;56108;48.730;9.304;2023-05-10T04:57:16;1.30;;;1.30;;
966;SDS011;56108;48.730;9.304;2023-05-10T04:59:24;1.67;;;1.58;;
966;SDS011;56108;48.730;9.304;2023-05-10T05:01:32;2.38;;;1.65;;
966;SDS011;56108;48.730;9.304;2023-05-10T05:03:40;1.52;;;1.42;;
966;SDS011;56108;48.730;9.304;2023-05-10T05:05:48;1.95;;;1.85;;
966;SDS011;56108;48.730;9.304;2023-05-10T05:07:59;1.58;;;1.48;;
966;SDS011;56108;48.730;9.304;2023-05-10T05:10:07;1.33;;;1.33;;
966;SDS011;56108;48.730;9.304;2023-05-10T05:12:16;1.80;;;1.70;;
966;SDS011;56108;48.730;9.304;2023-05-10T05:14:24;2.55;;;2.42;;
966;SDS011;56108;48.730;9.304;2023-05-10T05:16:32;2.40;;;2.30;;
966;SDS011;56108;48.730;9.304;2023-05-10T05:18:40;1.80;;;1.70;;
966;SDS011;56108;48.730;9.304;2023-05-10T05:20:48;2.25;;;2.05;;
966;SDS011;56108;48.730;9.304;2023-05-10T05:22:59;2.10;;;2.00;;
966;SDS011;56108;48.730;9.304;2023-05-10T05:25:07;1.77;;;1.70;;
966;SDS011;56108;48.730;9.304;2023-05-10T05:27:16;2.10;;;2.00;;
966;SDS011;56108;48.730;9.304;2023-05-10T05:29:25;2.42;;;2.17;;
966;SDS011;56108;48.730;9.304;2023-05-10T05:31:33;1.95;;;1.85;;
966;SDS011;56108;48.730;9.304;2023-05-10T05:33:41;1.88;;;1.77;;
966;SDS011;56108;48.730;9.304;2023-05-10T05:35:49;1.92;;;1.83;;
966;SDS011;56108;48.730;9.304;2023-05-10T05:38:00;2.17;;;2.08;;
966;SDS011;56108;48.730;9.304;2023-05-10T05:40:11;2.25;;;1.63;;
966;SDS011;56108;48.730;9.304;2023-05-10T05:42:20;2.00;;;1.90;;
966;SDS011;56108;48.730;9.304;2023-05-10T05:44:29;2.40;;;1.60;;
966;SDS011;56108;48.730;9.304;2023-05-10T05:46:37;2.75;;;1.67;;
966;SDS011;56108;48.730;9.304;2023-05-10T05:48:45;1.90;;;1.80;;
966;SDS011;56108;48.730;9.304;2023-05-10T05:50:54;1.95;;;1.85;;
966;SDS011;56108;48.730;9.304;2023-05-10T05:53:05;1.65;;;1.55;;
966;SDS011;56108;48.730;9.304;2023-05-10T05:55:13;1.65;;;1.55;;
966;SDS011;56108;48.730;9.304;2023-05-10T05:57:21;1.45;;;1.35;;
966;SDS011;56108;48.730;9.304;2023-05-10T05:59:31;1.98;;;1.70;;
966;SDS011;56108;48.730;9.304;2023-05-10T06:01:39;1.80;;;1.55;;
966;SDS011;56108;48.730;9.304;2023-05-10T06:03:47;1.60;;;1.50;;
966;SDS011;56108;48.730;9.304;2023-05-10T06:05:57;1.70;;;1.42;;
966;SDS011;56108;48.730;9.304;2023-05-10T06:08:07;1.80;;;1.70;;
966;SDS011;56108;48.730;9.304;2023-05-10T06:10:16;1.85;;;1.70;;
966;SDS011;56108;48.730;9.304;2023-05-10T06:12:24;2.28;;;2.08;;
966;SDS011;56108;48.730;9.304;2023-05-10T06:14:31;2.17;;;2.00;;
966;SDS011;56108;48.730;9.304;2023-05-10T06:16:39;3.72;;;2.22;;
966;SDS011;56108;48.730;9.304;2023-05-10T06:18:50;2.05;;;1.95;;
966;SDS011;56108;48.730;9.304;2023-05-10T06:20:58;4.70;;;2.33;;
966;SDS011;56108;48.730;9.304;2023-05-10T06:23:09;2.20;;;2.05;;
966;SDS011;56108;48.730;9.304;2023-05-10T06:25:16;2.10;;;1.73;;
966;SDS011;56108;48.730;9.304;2023-05-10T06:27:25;1.88;;;1.70;;
966;SDS011;56108;48.730;9.304;2023-05-10T06:29:33;2.13;;;2.00;;
966;SDS011;56108;48.730;9.304;2023-05-10T06:31:41;3.47;;;2.15;;
966;SDS011;56108;48.730;9.304;2023-05-10T06:33:49;2.35;;;2.15;;
966;SDS011;56108;48.730;9.304;2023-05-10T06:36:00;2.05;;;1.95;;
966;SDS011;56108;48.730;9.304;2023-05-10T06:38:11;2.30;;;2.10;;
966;SDS011;56108;48.730;9.304;2023-05-10T06:40:19;2.15;;;2.03;;
966;SDS011;56108;48.730;9.304;2023-05-10T06:42:28;2.00;;;1.90;;
966;SDS011;56108;48.730;9.304;2023-05-10T06:44:36;2.20;;;2.10;;
966;SDS011;56108;48.730;9.304;2023-05-10T06:46:44;2.67;;;2.30;;
966;SDS011;56108;48.730;9.304;2023-05-10T06:48:52;3.15;;;1.42;;
966;SDS011;56108;48.730;9.304;2023-05-10T06:51:00;1.85;;;1.75;;
966;SDS011;56108;48.730;9.304;2023-05-10T06:53:11;1.83;;;1.73;;
966;SDS011;56108;48.730;9.304;2023-05-10T06:55:19;2.10;;;2.00;;
966;SDS011;56108;48.730;9.304;2023-05-10T06:57:27;2.65;;;2.13;;
966;SDS011;56108;48.730;9.304;2023-05-10T06:59:37;2.00;;;1.60;;
966;SDS011;56108;48.730;9.304;2023-05-10T07:01:45;1.80;;;1.70;;
966;SDS011;56108;48.730;9.304;2023-05-10T07:03:53;1.90;;;1.80;;
966;SDS011;56108;48.730;9.304;2023-05-10T07:06:01;2.33;;;2.03;;
966;SDS011;56108;48.730;9.304;2023-05-10T07:08:24;2.20;;;2.10;;
966;SDS011;56108;48.730;9.304;2023-05-10T07:10:32;2.20;;;1.80;;
966;SDS011;56108;48.730;9.304;2023-05-10T07:12:40;1.90;;;1.80;;
966;SDS011;56108;48.730;9.304;2023-05-10T07:14:49;2.75;;;2.55;;
966;SDS011;56108;48.730;9.304;2023-05-10T07:16:57;2.00;;;1.80;;
966;SDS011;56108;48.730;9.304;2023-05-10T07:19:05;2.08;;;1.98;;
966;SDS011;56108;48.730;9.304;2023-05-10T07:21:13;1.92;;;1.70;;
966;SDS011;56108;48.730;9.304;2023-05-10T07:23:25;2.00;;;1.90;;
966;SDS011;56108;48.730;9.304;2023-05-10T07:25:34;2.10;;;2.00;;
966;SDS011;56108;48.730;9.304;2023-05-10T07:27:42;2.15;;;1.95;;
966;SDS011;56108;48.730;9.304;2023-05-10T07:29:50;2.25;;;2.05;;
966;SDS011;56108;48.730;9.304;2023-05-10T07:31:59;1.98;;;1.80;;
966;SDS011;56108;48.730;9.304;2023-05-10T07:34:07;1.83;;;1.73;;
966;SDS011;56108;48.730;9.304;2023-05-10T07:36:15;1.95;;;1.85;;
966;SDS011;56108;48.730;9.304;2023-05-10T07:38:26;1.80;;;1.70;;
966;SDS011;56108;48.730;9.304;2023-05-10T07:40:34;2.38;;;1.70;;
966;SDS011;56108;48.730;9.304;2023-05-10T07:42:42;1.73;;;1.63;;
966;SDS011;56108;48.730;9.304;2023-05-10T07:44:50;1.50;;;1.40;;
966;SDS011;56108;48.730;9.304;2023-05-10T07:46:58;1.55;;;1.50;;
966;SDS011;56108;48.730;9.304;2023-05-10T07:49:06;1.40;;;1.40;;
966;SDS011;56108;48.730;9.304;2023-05-10T07:51:14;1.58;;;1.50;;
966;SDS011;56108;48.730;9.304;2023-05-10T07:53:22;1.45;;;1.40;;
966;SDS011;56108;48.730;9.304;2023-05-10T07:55:33;1.75;;;1.65;;
966;SDS011;56108;48.730;9.304;2023-05-10T07:57:41;1.40;;;1.40;;
966;SDS011;56108;48.730;9.304;2023-05-10T07:59:49;1.60;;;1.50;;
966;SDS011;56108;48.730;9.304;2023-05-10T08:01:57;1.70;;;1.60;;
966;SDS011;56108;48.730;9.304;2023-05-10T08:04:05;1.67;;;1.55;;
966;SDS011;56108;48.730;9.304;2023-05-10T08:06:13;2.00;;;1.90;;
966;SDS011;56108;48.730;9.304;2023-05-10T08:08:21;1.52;;;1.42;;
966;SDS011;56108;48.730;9.304;2023-05-10T08:10:29;1.70;;;1.58;;
966;SDS011;56108;48.730;9.304;2023-05-10T08:12:40;1.92;;;1.83;;
966;SDS011;56108;48.730;9.304;2023-05-10T08:14:48;1.60;;;1.50;;
966;SDS011;56108;48.730;9.304;2023-05-10T08:16:56;1.80;;;1.70;;
966;SDS011;56108;48.730;9.304;2023-05-10T08:19:04;1.52;;;1.52;;
966;SDS011;56108;48.730;9.304;2023-05-10T08:21:12;1.80;;;1.70;;
966;SDS011;56108;48.730;9.304;2023-05-10T08:23:20;1.42;;;1.42;;
966;SDS011;56108;48.730;9.304;2023-05-10T08:25:28;1.63;;;1.52;;
966;SDS011;56108;48.730;9.304;2023-05-10T08:27:36;1.23;;;1.23;;
966;SDS011;56108;48.730;9.304;2023-05-10T08:29:46;1.33;;;1.33;;
966;SDS011;56108;48.730;9.304;2023-05-10T08:31:54;1.60;;;1.50;;
966;SDS011;56108;48.730;9.304;2023-05-10T08:34:02;2.42;;;1.30;;
966;SDS011;56108;48.730;9.304;2023-05-10T08:36:10;1.70;;;1.60;;
966;SDS011;56108;48.730;9.304;2023-05-10T08:38:24;1.90;;;1.73;;
966;SDS011;56108;48.730;9.304;2023-05-10T08:40:32;2.15;;;1.65;;
966;SDS011;56108;48.730;9.304;2023-05-10T08:42:42;1.80;;;1.70;;
966;SDS011;56108;48.730;9.304;2023-05-10T08:44:59;1.80;;;1.70;;
966;SDS011;56108;48.730;9.304;2023-05-10T08:47:07;1.42;;;1.33;;
966;SDS011;56108;48.730;9.304;2023-05-10T08:49:17;2.45;;;1.25;;
966;SDS011;56108;48.730;9.304;2023-05-10T08:51:27;1.30;;;1.20;;
966;SDS011;56108;48.730;9.304;2023-05-10T08:53:40;1.20;;;1.20;;
966;SDS011;56108;48.730;9.304;2023-05-10T08:55:49;1.58;;;1.42;;
966;SDS011;56108;48.730;9.304;2023-05-10T08:57:57;1.25;;;1.00;;
966;SDS011;56108;48.730;9.304;2023-05-10T09:00:10;2.65;;;1.52;;
966;SDS011;56108;48.730;9.304;2023-05-10T09:02:19;1.30;;;1.20;;
966;SDS011;56108;48.730;9.304;2023-05-10T09:04:28;2.05;;;1.42;;
966;SDS011;56108;48.730;9.304;2023-05-10T09:06:37;0.95;;;0.95;;
966;SDS011;56108;48.730;9.304;2023-05-10T09:08:45;1.20;;;1.10;;
966;SDS011;56108;48.730;9.304;2023-05-10T09:10:54;2.15;;;1.10;;
966;SDS011;56108;48.730;9.304;2023-05-10T09:13:02;1.80;;;1.70;;
966;SDS011;56108;48.730;9.304;2023-05-10T09:15:15;1.40;;;1.30;;
966;SDS011;56108;48.730;9.304;2023-05-10T09:17:23;1.33;;;1.33;;
966;SDS011;56108;48.730;9.304;2023-05-10T09:19:33;4.13;;;1.85;;
966;SDS011;56108;48.730;9.304;2023-05-10T09:21:41;0.98;;;0.98;;
966;SDS011;56108;48.730;9.304;2023-05-10T09:23:49;1.00;;;1.00;;
966;SDS011;56108;48.730;9.304;2023-05-10T09:26:02;1.50;;;0.98;;
966;SDS011;56108;48.730;9.304;2023-05-10T09:28:10;1.10;;;1.10;;
966;SDS011;56108;48.730;9.304;2023-05-10T09:30:27;1.05;;;1.02;;
966;SDS011;56108;48.730;9.304;2023-05-10T09:32:37;0.90;;;0.90;;
966;SDS011;56108;48.730;9.304;2023-05-10T09:34:47;0.93;;;0.93;;
966;SDS011;56108;48.730;9.304;2023-05-10T09:36:59;1.23;;;1.13;;
966;SDS011;56108;48.730;9.304;2023-05-10T09:39:09;0.90;;;0.90;;
966;SDS011;56108;48.730;9.304;2023-05-10T09:41:17;1.55;;;1.08;;
966;SDS011;56108;48.730;9.304;2023-05-10T09:43:26;0.88;;;0.88;;
966;SDS011;56108;48.730;9.304;2023-05-10T09:45:40;1.20;;;1.10;;
966;SDS011;56108;48.730;9.304;2023-05-10T09:47:49;0.80;;;0.80;;
966;SDS011;56108;48.730;9.304;2023-05-10T09:49:57;1.40;;;1.30;;
966;SDS011;56108;48.730;9.304;2023-05-10T09:52:08;1.40;;;1.13;;
966;SDS011;56108;48.730;9.304;2023-05-10T09:54:16;1.00;;;1.00;;
966;SDS011;56108;48.730;9.304;2023-05-10T09:56:34;1.00;;;1.00;;
966;SDS011;56108;48.730;9.304;2023-05-10T09:58:44;0.80;;;0.80;;
966;SDS011;56108;48.730;9.304;2023-05-10T10:00:55;1.08;;;0.90;;
966;SDS011;56108;48.730;9.304;2023-05-10T10:03:04;1.13;;;0.98;;
966;SDS011;56108;48.730;9.304;2023-05-10T10:05:12;1.08;;;1.08;;
966;SDS011;56108;48.730;9.304;2023-05-10T10:07:22;1.00;;;1.00;;
966;SDS011;56108;48.730;9.304;2023-05-10T10:09:32;1.00;;;1.00;;
966;SDS011;56108;48.730;9.304;2023-05-10T10:11:42;0.70;;;0.70;;
966;SDS011;56108;48.730;9.304;2023-05-10T10:13:50;0.95;;;0.95;;
966;SDS011;56108;48.730;9.304;2023-05-10T10:16:01;0.85;;;0.85;;
966;SDS011;56108;48.730;9.304;2023-05-10T10:18:14;1.08;;;1.00;;
966;SDS011;56108;48.730;9.304;2023-05-10T10:20:22;0.85;;;0.85;;
966;SDS011;56108;48.730;9.304;2023-05-10T10:22:33;2.10;;;0.75;;
966;SDS011;56108;48.730;9.304;2023-05-10T10:24:41;1.00;;;1.00;;
966;SDS011;56108;48.730;9.304;2023-05-10T10:26:49;0.77;;;0.77;;
966;SDS011;56108;48.730;9.304;2023-05-10T10:29:04;0.80;;;0.80;;
966;SDS011;56108;48.730;9.304;2023-05-10T10:31:25;3.42;;;0.80;;
966;SDS011;56108;48.730;9.304;2023-05-10T10:33:40;0.70;;;0.70;;
966;SDS011;56108;48.730;9.304;2023-05-10T10:36:03;1.33;;;1.00;;
966;SDS011;56108;48.730;9.304;2023-05-10T10:38:12;0.60;;;0.60;;
966;SDS011;56108;48.730;9.304;2023-05-10T10:40:25;1.92;;;1.00;;
966;SDS011;56108;48.730;9.304;2023-05-10T10:42:44;0.95;;;0.95;;
966;SDS011;56108;48.730;9.304;2023-05-10T10:45:00;1.30;;;0.82;;
966;SDS011;56108;48.730;9.304;2023-05-10T10:47:27;1.80;;;0.80;;
966;SDS011;56108;48.730;9.304;2023-05-10T10:49:38;1.02;;;1.02;;
966;SDS011;56108;48.730;9.304;2023-05-10T10:54:38;1.45;;;1.35;;
966;SDS011;56108;48.730;9.304;2023-05-10T10:56:46;1.30;;;1.20;;
966;SDS011;56108;48.730;9.304;2023-05-10T10:59:26;1.20;;;1.20;;
966;SDS011;56108;48.730;9.304;2023-05-10T11:01:35;1.25;;;1.20;;
966;SDS011;56108;48.730;9.304;2023-05-10T11:06:30;2.45;;;1.20;;
966;SDS011;56108;48.730;9.304;2023-05-10T11:08:43;1.30;;;0.90;;
966;SDS011;56108;48.730;9.304;2023-05-10T11:10:53;1.00;;;1.00;;
966;SDS011;56108;48.730;9.304;2023-05-10T11:13:11;1.35;;;1.10;;
966;SDS011;56108;48.730;9.304;2023-05-10T11:15:19;1.80;;;1.13;;
966;SDS011;56108;48.730;9.304;2023-05-10T11:17:35;1.60;;;0.82;;
966;SDS011;56108;48.730;9.304;2023-05-10T11:22:13;1.38;;;0.80;;
966;SDS011;56108;48.730;9.304;2023-05-10T11:24:22;1.00;;;0.95;;
966;SDS011;56108;48.730;9.304;2023-05-10T11:26:34;0.70;;;0.70;;
966;SDS011;56108;48.730;9.304;2023-05-10T11:28:43;1.30;;;0.63;;
966;SDS011;56108;48.730;9.304;2023-05-10T11:30:52;0.82;;;0.80;;
966;SDS011;56108;48.730;9.304;2023-05-10T11:33:02;1.10;;;0.77;;
966;SDS011;56108;48.730;9.304;2023-05-10T11:35:12;0.75;;;0.75;;
966;SDS011;56108;48.730;9.304;2023-05-10T11:37:21;2.33;;;1.35;;
966;SDS011;56108;48.730;9.304;2023-05-10T11:39:29;1.20;;;1.05;;
966;SDS011;56108;48.730;9.304;2023-05-10T11:41:39;0.77;;;0.77;;
966;SDS011;56108;48.730;9.304;2023-05-10T11:43:47;6.03;;;0.90;;
966;SDS011;56108;48.730;9.304;2023-05-10T11:45:57;1.17;;;1.17;;
966;SDS011;56108;48.730;9.304;2023-05-10T11:48:05;3.25;;;1.23;;
966;SDS011;56108;48.730;9.304;2023-05-10T11:50:16;1.33;;;1.23;;
966;SDS011;56108;48.730;9.304;2023-05-10T11:52:25;1.42;;;1.33;;
966;SDS011;56108;48.730;9.304;2023-05-10T11:54:33;1.00;;;1.00;;
966;SDS011;56108;48.730;9.304;2023-05-10T11:56:42;1.27;;;1.10;;
966;SDS011;56108;48.730;9.304;2023-05-10T11:58:52;0.70;;;0.70;;
966;SDS011;56108;48.730;9.304;2023-05-10T12:01:01;2.28;;;1.08;;
966;SDS011;56108;48.730;9.304;2023-05-10T12:03:10;1.95;;;0.90;;
966;SDS011;56108;48.730;9.304;2023-05-10T12:05:21;2.08;;;1.15;;
966;SDS011;56108;48.730;9.304;2023-05-10T12:07:29;1.98;;;1.40;;
966;SDS011;56108;48.730;9.304;2023-05-10T12:09:37;1.20;;;1.10;;
966;SDS011;56108;48.730;9.304;2023-05-10T12:11:50;0.98;;;0.98;;
966;SDS011;56108;48.730;9.304;2023-05-10T12:14:04;1.20;;;1.20;;
966;SDS011;56108;48.730;9.304;2023-05-10T12:16:12;0.93;;;0.90;;
966;SDS011;56108;48.730;9.304;2023-05-10T12:18:22;1.00;;;1.00;;
966;SDS011;56108;48.730;9.304;2023-05-10T12:20:34;1.50;;;1.23;;
966;SDS011;56108;48.730;9.304;2023-05-10T12:22:46;1.40;;;1.30;;
966;SDS011;56108;48.730;9.304;2023-05-10T12:24:54;1.15;;;1.15;;
966;SDS011;56108;48.730;9.304;2023-05-10T12:27:04;2.35;;;1.40;;
966;SDS011;56108;48.730;9.304;2023-05-10T12:29:13;1.50;;;1.40;;
966;SDS011;56108;48.730;9.304;2023-05-10T12:31:23;3.80;;;1.35;;
966;SDS011;56108;48.730;9.304;2023-05-10T12:33:37;2.55;;;1.45;;
966;SDS011;56108;48.730;9.304;2023-05-10T12:35:50;1.70;;;1.60;;
966;SDS011;56108;48.730;9.304;2023-05-10T12:38:00;1.27;;;1.17;;
966;SDS011;56108;48.730;9.304;2023-05-10T12:40:29;1.10;;;1.10;;
966;SDS011;56108;48.730;9.304;2023-05-10T12:42:38;2.35;;;1.00;;
966;SDS011;56108;48.730;9.304;2023-05-10T12:44:46;1.40;;;1.30;;
966;SDS011;56108;48.730;9.304;2023-05-10T12:46:54;1.63;;;1.55;;
966;SDS011;56108;48.730;9.304;2023-05-10T12:49:02;1.40;;;1.30;;
966;SDS011;56108;48.730;9.304;2023-05-10T12:51:15;1.55;;;0.98;;
966;SDS011;56108;48.730;9.304;2023-05-10T12:53:26;1.35;;;1.35;;
966;SDS011;56108;48.730;9.304;2023-05-10T12:55:34;1.65;;;1.35;;
966;SDS011;56108;48.730;9.304;2023-05-10T12:57:42;1.60;;;1.30;;
966;SDS011;56108;48.730;9.304;2023-05-10T12:59:50;2.15;;;1.40;;
966;SDS011;56108;48.730;9.304;2023-05-10T13:01:58;1.70;;;1.60;;
966;SDS011;56108;48.730;9.304;2023-05-10T13:04:06;1.75;;;1.55;;
966;SDS011;56108;48.730;9.304;2023-05-10T13:06:17;1.60;;;1.50;;
966;SDS011;56108;48.730;9.304;2023-05-10T13:08:25;1.38;;;1.25;;
966;SDS011;56108;48.730;9.304;2023-05-10T13:10:38;1.70;;;1.60;;
966;SDS011;56108;48.730;9.304;2023-05-10T13:12:46;1.50;;;1.40;;
966;SDS011;56108;48.730;9.304;2023-05-10T13:14:54;1.60;;;1.50;;
966;SDS011;56108;48.730;9.304;2023-05-10T13:17:02;2.05;;;1.70;;
966;SDS011;56108;48.730;9.304;2023-05-10T13:19:10;3.00;;;1.60;;
966;SDS011;56108;48.730;9.304;2023-05-10T13:21:21;1.70;;;1.60;;
966;SDS011;56108;48.730;9.304;2023-05-10T13:23:29;1.83;;;1.73;;
966;SDS011;56108;48.730;9.304;2023-05-10T13:25:37;2.03;;;1.92;;
966;SDS011;56108;48.730;9.304;2023-05-10T13:27:45;4.97;;;1.77;;
966;SDS011;56108;48.730;9.304;2023-05-10T13:29:53;2.88;;;1.95;;
966;SDS011;56108;48.730;9.304;2023-05-10T13:32:04;3.05;;;2.20;;
966;SDS011;56108;48.730;9.304;2023-05-10T13:34:12;3.97;;;2.00;;
966;SDS011;56108;48.730;9.304;2023-05-10T13:36:23;2.45;;;2.20;;
966;SDS011;56108;48.730;9.304;2023-05-10T13:38:31;2.65;;;2.45;;
966;SDS011;56108;48.730;9.304;2023-05-10T13:40:39;3.35;;;2.50;;
966;SDS011;56108;48.730;9.304;2023-05-10T13:42:47;3.25;;;2.45;;
966;SDS011;56108;48.730;9.304;2023-05-10T13:44:55;4.22;;;2.45;;
966;SDS011;56108;48.730;9.304;2023-05-10T13:47:04;3.03;;;2.70;;
966;SDS011;56108;48.730;9.304;2023-05-10T13:49:12;3.55;;;2.30;;